METAR / TAF
Helsinki-Vantaa
HELSINKI/VANTAA
Metar
EFHK 232150Z 33005KT CAVOK 17/15 Q1015 NOSIG

21:50 UTC

Wind: 330° 5kt

Visibility:

Sky:

Temp: 17 deg C / 62.6 deg F

Dewpoint: 15 deg C / 59 deg F

Pressure: 1015 hPa

TAF
TAF EFHK 232034Z 2321/2421 32005KT CAVOK PROB30 2322/2324 1500 MIFG PROB30 2400/2403 0500 FG VV001 PROB30 2403/2404 1500 BR
Helsinki, Malmi
HELSINKI/MALMI
Turku
TURKU/ABO
Metar
EFTU 232150Z AUTO 29004KT CAVOK 15/12 Q1016

21:50 UTC

Wind: 290° 4kt

Visibility:

Sky:

Temp: 15 deg C / 59 deg F

Dewpoint: 12 deg C / 53.6 deg F

Pressure: 1016 hPa

TAF
TAF EFTU 232034Z 2321/2421 30003KT CAVOK PROB30 2323/2404 2500 BR
Tampere, Pirkkala
TAMPERE/PIRKKALA
Metar
EFTP 232150Z AUTO VRB00KT CAVOK 16/15 Q1017

21:50 UTC

Wind: ° 0kt

Visibility:

Sky:

Temp: 16 deg C / 60.8 deg F

Dewpoint: 15 deg C / 59 deg F

Pressure: 1017 hPa

TAF
TAF EFTP 232033Z 2321/2421 31002KT CAVOK PROB30 2321/2403 2000 BCFG
Maarianhamina
MARIEHAMN/ALAND
Metar
EFMA 232150Z AUTO VRB01KT CAVOK 12/12 Q1017

21:50 UTC

Wind: ° 1kt

Visibility:

Sky:

Temp: 12 deg C / 53.6 deg F

Dewpoint: 12 deg C / 53.6 deg F

Pressure: 1017 hPa

TAF
TAF EFMA 232034Z 2321/2406 VRB02KT CAVOK PROB30 2323/2404 3000 BR
Pori
PORI (MIL/CIV)
Metar
EFPO 232150Z AUTO 29003KT 260V320 CAVOK 14/13 Q1017

21:50 UTC

Wind: 290° 3kt

Visibility:

Sky:

Temp: 14 deg C / 57.2 deg F

Dewpoint: 13 deg C / 55.4 deg F

Pressure: 1017 hPa

Vaasa
VAASA
Metar
EFVA 232150Z AUTO VRB02KT 5000 SCT001 15/14 Q1017

21:50 UTC

Wind: ° 2kt

Visibility: 5000 m

Sky: SCT 100 ft

Temp: 15 deg C / 59 deg F

Dewpoint: 14 deg C / 57.2 deg F

Pressure: 1017 hPa

TAF
TAF AMD EFVA 232125Z 2321/2421 VRB01KT CAVOK BECMG 2321/2323 0300 FG VV001 TEMPO 2323/2403 9999 MIFG NSC BECMG 2403/2405 9999 NSW FEW001
Kruunupyy
KRUUNUPYY
Metar
EFKK 232150Z 21001KT 9999 R19/0700 MIFG NSC 13/13 Q1016

21:50 UTC

Wind: 210° 1kt

Visibility: 9999 m

Sky:

Temp: 13 deg C / 55.4 deg F

Dewpoint: 13 deg C / 55.4 deg F

Pressure: 1016 hPa

TAF
TAF AMD EFKK 232122Z 2321/2323 VRB01KT 9999 MIFG NCD BECMG 2321/2323 0700 BCFG
Jyväskylä, Tikkakoski
JYVASKYLA (MIL/C
Metar
EFJY 232150Z AUTO 32003KT 290V360 CAVOK 15/12 Q1016

21:50 UTC

Wind: 320° 3kt

Visibility:

Sky:

Temp: 15 deg C / 59 deg F

Dewpoint: 12 deg C / 53.6 deg F

Pressure: 1016 hPa

TAF
TAF EFJY 232033Z 2321/2421 34003KT CAVOK PROB30 TEMPO 2400/2403 2500 BR
Kuopio
KUOPIO (MIL/CIV)
Metar
EFKU 232150Z AUTO 30005KT CAVOK 20/11 Q1014

21:50 UTC

Wind: 300° 5kt

Visibility:

Sky:

Temp: 20 deg C / 68 deg F

Dewpoint: 11 deg C / 51.8 deg F

Pressure: 1014 hPa

TAF
TAF EFKU 232035Z 2321/2421 34004KT CAVOK
Joensuu
JOENSUU
Metar
EFJO 232150Z AUTO 16006KT 130V190 CAVOK 18/14 Q1014

21:50 UTC

Wind: 160° 6kt

Visibility:

Sky:

Temp: 18 deg C / 64.4 deg F

Dewpoint: 14 deg C / 57.2 deg F

Pressure: 1014 hPa

Halli
HALLI (FIN-AFB)
Metar
EFHA 232150Z AUTO 30005KT CAVOK 15/13 Q1016

21:50 UTC

Wind: 300° 5kt

Visibility:

Sky:

Temp: 15 deg C / 59 deg F

Dewpoint: 13 deg C / 55.4 deg F

Pressure: 1016 hPa

Utti
UTTI (FIN-AFB)
Metar
EFUT 232150Z AUTO 32005KT CAVOK 17/11 Q1015

21:50 UTC

Wind: 320° 5kt

Visibility:

Sky:

Temp: 17 deg C / 62.6 deg F

Dewpoint: 11 deg C / 51.8 deg F

Pressure: 1015 hPa

Mikkeli
MIKKELI
Metar
EFMI 232150Z AUTO 28003KT CAVOK 13/13 Q1015

21:50 UTC

Wind: 280° 3kt

Visibility:

Sky:

Temp: 13 deg C / 55.4 deg F

Dewpoint: 13 deg C / 55.4 deg F

Pressure: 1015 hPa

Savonlinna
SAVONLINNA (AUT)
Metar
EFSA 232150Z AUTO 26005KT CAVOK 19/14 Q1014

21:50 UTC

Wind: 260° 5kt

Visibility:

Sky:

Temp: 19 deg C / 66.2 deg F

Dewpoint: 14 deg C / 57.2 deg F

Pressure: 1014 hPa

Lappeenranta
LAPPEENRANTA
Metar
EFLP 232150Z AUTO 29003KT CAVOK 19/13 Q1014

21:50 UTC

Wind: 290° 3kt

Visibility:

Sky:

Temp: 19 deg C / 66.2 deg F

Dewpoint: 13 deg C / 55.4 deg F

Pressure: 1014 hPa

Oulu
OULU/ULEABORG
Metar
EFOU 232150Z AUTO 31004KT 9999 VV001 18/16 Q1016

21:50 UTC

Wind: 310° 4kt

Visibility: 9999 m

Sky: VV 100 ft

Temp: 18 deg C / 64.4 deg F

Dewpoint: 16 deg C / 60.8 deg F

Pressure: 1016 hPa

TAF
TAF AMD EFOU 232136Z 2321/2421 30006KT CAVOK TEMPO 2321/2322 0500 BCFG BECMG 2322/2324 0300 FG VV001 TEMPO 2400/2403 3000 BR FEW001 BECMG 2403/2405 CAVOK
Kemi
KEMI
Metar
EFKE 232150Z AUTO VRB02KT CAVOK 13/13 Q1016

21:50 UTC

Wind: ° 2kt

Visibility:

Sky:

Temp: 13 deg C / 55.4 deg F

Dewpoint: 13 deg C / 55.4 deg F

Pressure: 1016 hPa

Rovaniemi
ROVANIEMI (CIV/M
Metar
EFRO 232150Z AUTO VRB02KT CAVOK 20/10 Q1016

21:50 UTC

Wind: ° 2kt

Visibility:

Sky:

Temp: 20 deg C / 68 deg F

Dewpoint: 10 deg C / 50 deg F

Pressure: 1016 hPa

TAF
TAF EFRO 232035Z 2321/2421 26004KT CAVOK
Enontekiö
ENONTEKIO
Metar
EFET 232150Z AUTO 18004KT 150V220 CAVOK 17/10 Q1015

21:50 UTC

Wind: 180° 4kt

Visibility:

Sky:

Temp: 17 deg C / 62.6 deg F

Dewpoint: 10 deg C / 50 deg F

Pressure: 1015 hPa

Ivalo
IVALO
Metar
EFIV 232150Z AUTO 25002KT CAVOK 16/12 Q1015

21:50 UTC

Wind: 250° 2kt

Visibility:

Sky:

Temp: 16 deg C / 60.8 deg F

Dewpoint: 12 deg C / 53.6 deg F

Pressure: 1015 hPa

Kittilä
KITTILA
Metar
EFKT 232150Z AUTO VRB01KT CAVOK 13/12 Q1015

21:50 UTC

Wind: ° 1kt

Visibility:

Sky:

Temp: 13 deg C / 55.4 deg F

Dewpoint: 12 deg C / 53.6 deg F

Pressure: 1015 hPa

Kuusamo
KUUSAMO
Metar
EFKS 232150Z AUTO 30001KT CAVOK 16/15 Q1015

21:50 UTC

Wind: 300° 1kt

Visibility:

Sky:

Temp: 16 deg C / 60.8 deg F

Dewpoint: 15 deg C / 59 deg F

Pressure: 1015 hPa

Kajaani
KAJAANI
Metar
EFKI 232150Z AUTO VRB01KT CAVOK 14/11 Q1015

21:50 UTC

Wind: ° 1kt

Visibility:

Sky:

Temp: 14 deg C / 57.2 deg F

Dewpoint: 11 deg C / 51.8 deg F

Pressure: 1015 hPa

TAF
TAF EFKI 231734Z 2318/2321 30004KT CAVOK
Varkaus
VARKAUS
Seinäjoki
SEINAJOKI-ILMAJO
Metar
EFSI 232150Z AUTO 00000KT 9999 BCFG SKC 13/13 Q1017

21:50 UTC

Wind: 0° 0kt

Visibility: 9999 m

Sky:

Temp: 13 deg C / 55.4 deg F

Dewpoint: 13 deg C / 55.4 deg F

Pressure: 1017 hPa

Print Friendly, PDF & Email